createdAt,value
2023-01-25T00:01:01.188Z,93115.53
2023-01-25T00:03:47.052Z,93116.56
2023-01-25T00:06:32.869Z,93114.75
2023-01-25T00:09:18.781Z,93113.97
2023-01-25T00:12:04.695Z,93112.19
2023-01-25T00:14:50.519Z,93108.56
2023-01-25T00:17:36.628Z,93115.25
2023-01-25T00:20:22.571Z,93105.44
2023-01-25T00:23:08.583Z,93101.28
2023-01-25T00:25:54.466Z,93104.69
2023-01-25T00:28:40.465Z,93103.66
2023-01-25T00:31:28.434Z,93097.97
2023-01-25T00:34:14.712Z,93096.94
2023-01-25T00:37:00.493Z,93091.00
2023-01-25T00:39:46.423Z,93087.91
2023-01-25T00:42:32.357Z,93095.66
2023-01-25T00:45:18.128Z,93085.59
2023-01-25T00:48:04.164Z,93087.41
2023-01-25T00:50:50.053Z,93088.94
2023-01-25T00:53:36.139Z,93084.56
2023-01-25T00:56:21.992Z,93098.22
2023-01-25T00:59:07.814Z,93090.25
2023-01-25T01:01:53.710Z,93087.16
2023-01-25T01:04:39.848Z,93077.06
2023-01-25T01:07:25.705Z,93081.97
2023-01-25T01:10:11.684Z,93080.19
2023-01-25T01:12:57.638Z,93088.69
2023-01-25T01:15:43.669Z,93080.94
2023-01-25T01:18:29.525Z,93076.03
2023-01-25T01:21:15.380Z,93078.88
2023-01-25T01:24:01.214Z,93077.31
2023-01-25T01:26:47.051Z,93081.22
2023-01-25T01:29:33.031Z,93075.75
2023-01-25T01:32:19.129Z,93074.19
2023-01-25T01:35:05.737Z,93076.56
2023-01-25T01:37:51.901Z,93072.44
2023-01-25T01:40:37.752Z,93075.78
2023-01-25T01:43:23.635Z,93070.59
2023-01-25T01:46:09.657Z,93074.50
2023-01-25T01:48:55.791Z,93073.44
2023-01-25T01:51:41.709Z,93064.69
2023-01-25T01:54:27.549Z,93072.94
2023-01-25T01:57:13.325Z,93065.72
2023-01-25T01:59:59.266Z,93066.50
2023-01-25T02:02:45.175Z,93068.28
2023-01-25T02:05:31.387Z,93067.00
2023-01-25T02:08:17.353Z,93072.44
2023-01-25T02:11:03.325Z,93068.56
2023-01-25T02:13:49.130Z,93063.66
2023-01-25T02:16:34.911Z,93063.41
2023-01-25T02:19:20.773Z,93068.03
2023-01-25T02:22:06.467Z,93052.81
2023-01-25T02:24:52.461Z,93052.28
2023-01-25T02:27:38.341Z,93038.34
2023-01-25T02:30:24.267Z,93043.22
2023-01-25T02:33:10.147Z,93041.97
2023-01-25T02:35:56.135Z,93037.06
2023-01-25T02:38:41.976Z,93030.09
2023-01-25T02:41:27.800Z,93029.06
2023-01-25T02:44:13.725Z,93020.31
2023-01-25T02:46:59.694Z,93007.94
2023-01-25T02:49:45.398Z,92999.19
2023-01-25T02:52:31.274Z,92987.59
2023-01-25T02:55:17.018Z,92975.59
2023-01-25T02:58:02.926Z,92973.31
2023-01-25T03:00:48.788Z,92976.81
2023-01-25T03:03:34.741Z,92967.59
2023-01-25T03:06:20.639Z,92968.25
2023-01-25T03:09:06.540Z,92971.59
2023-01-25T03:11:52.397Z,92990.53
2023-01-25T03:14:38.272Z,93013.88
2023-01-25T03:17:24.095Z,93010.78
2023-01-25T03:20:10.450Z,93000.22
2023-01-25T03:22:56.331Z,93009.25
2023-01-25T03:25:42.109Z,93012.03
2023-01-25T03:28:28.134Z,93009.97
2023-01-25T03:31:14.110Z,93015.41
2023-01-25T03:34:00.300Z,93006.09
2023-01-25T03:36:46.329Z,92998.13
2023-01-25T03:39:32.289Z,92994.53
2023-01-25T03:42:18.169Z,92996.56
2023-01-25T03:45:04.173Z,92996.03
2023-01-25T03:47:50.078Z,92986.50
2023-01-25T03:50:36.254Z,92982.66
2023-01-25T03:53:22.110Z,92994.78
2023-01-25T03:56:07.986Z,92988.59
2023-01-25T03:58:54.030Z,92996.03
2023-01-25T04:01:39.963Z,92994.50
2023-01-25T04:04:25.880Z,92984.16
2023-01-25T04:07:11.786Z,92975.47
2023-01-25T04:09:57.601Z,92982.88
2023-01-25T04:12:43.778Z,92982.34
2023-01-25T04:15:29.421Z,92980.06
2023-01-25T04:18:15.351Z,92979.28
2023-01-25T04:21:01.248Z,92979.00
2023-01-25T04:23:46.980Z,92977.22
2023-01-25T04:26:32.895Z,92972.06
2023-01-25T04:29:20.594Z,92970.44
2023-01-25T04:32:09.838Z,92966.09
2023-01-25T04:34:56.036Z,92963.25
2023-01-25T04:37:41.945Z,92956.53
2023-01-25T04:40:27.852Z,92953.47
2023-01-25T04:43:15.645Z,92953.00
2023-01-25T04:46:01.631Z,92955.81
2023-01-25T04:48:47.515Z,92956.56
2023-01-25T04:51:33.577Z,92953.75
2023-01-25T04:54:19.531Z,92953.22
2023-01-25T04:57:05.336Z,92962.25
2023-01-25T04:59:51.382Z,92965.34
2023-01-25T05:02:37.346Z,92961.50
2023-01-25T05:05:23.341Z,92956.34
2023-01-25T05:08:09.370Z,92961.75
2023-01-25T05:10:55.236Z,92959.19
2023-01-25T05:13:41.236Z,92952.72
2023-01-25T05:16:29.242Z,92942.19
2023-01-25T05:19:15.114Z,92939.13
2023-01-25T05:22:01.035Z,92952.00
2023-01-25T05:24:46.961Z,92940.13
2023-01-25T05:27:32.903Z,92937.81
2023-01-25T05:30:18.825Z,92943.75
2023-01-25T05:33:04.669Z,92956.91
2023-01-25T05:35:50.674Z,92954.56
2023-01-25T05:38:36.697Z,92948.66
2023-01-25T05:41:22.589Z,92950.19
2023-01-25T05:44:08.575Z,92954.56
2023-01-25T05:46:54.486Z,92951.75
2023-01-25T05:49:40.341Z,92949.94
2023-01-25T05:52:26.188Z,92942.97
2023-01-25T05:55:14.137Z,92947.63
2023-01-25T05:58:00.994Z,92948.41
2023-01-25T06:00:46.912Z,92939.91
2023-01-25T06:03:32.919Z,92937.31
2023-01-25T06:06:19.110Z,92942.97
2023-01-25T06:09:05.108Z,92946.59
2023-01-25T06:11:50.903Z,92946.84
2023-01-25T06:14:36.825Z,92935.00
2023-01-25T06:17:22.687Z,92936.53
2023-01-25T06:20:08.571Z,92937.56
2023-01-25T06:22:54.437Z,92941.69
2023-01-25T06:25:40.348Z,92937.06
2023-01-25T06:28:26.256Z,92930.09
2023-01-25T06:31:12.512Z,92927.50
2023-01-25T06:33:59.968Z,92934.72
2023-01-25T06:36:45.994Z,92939.91
2023-01-25T06:39:31.912Z,92936.00
2023-01-25T06:42:17.658Z,92938.31
2023-01-25T06:45:03.499Z,92920.78
2023-01-25T06:47:49.394Z,92921.28
2023-01-25T06:50:35.357Z,92923.38
2023-01-25T06:53:21.317Z,92937.81
2023-01-25T06:56:07.705Z,92936.28
2023-01-25T06:58:54.493Z,92937.06
2023-01-25T07:01:40.403Z,92929.59
2023-01-25T07:04:26.318Z,92921.56
2023-01-25T07:07:12.293Z,92930.84
2023-01-25T07:09:58.251Z,92932.13
2023-01-25T07:12:44.201Z,92928.53
2023-01-25T07:15:30.118Z,92928.25
2023-01-25T07:18:16.846Z,92928.78
2023-01-25T07:21:02.829Z,92924.16
2023-01-25T07:23:48.810Z,92911.81
2023-01-25T07:26:34.681Z,92919.50
2023-01-25T07:29:20.606Z,92917.97
2023-01-25T07:32:06.529Z,92920.28
2023-01-25T07:34:52.264Z,92920.31
2023-01-25T07:37:38.222Z,92913.34
2023-01-25T07:40:24.012Z,92914.88
2023-01-25T07:43:09.930Z,92915.91
2023-01-25T07:45:55.857Z,92919.28
2023-01-25T07:48:41.753Z,92909.47
2023-01-25T07:51:27.587Z,92916.16
2023-01-25T07:54:13.444Z,92913.88
2023-01-25T07:56:59.420Z,92912.81
2023-01-25T07:59:45.250Z,92910.78
2023-01-25T08:02:31.153Z,92915.38
2023-01-25T08:05:17.070Z,92916.13
2023-01-25T08:08:03.120Z,92918.22
2023-01-25T08:10:48.934Z,92915.63
2023-01-25T08:13:34.876Z,92913.00
2023-01-25T08:16:20.693Z,92924.41
2023-01-25T08:19:06.645Z,92924.69
2023-01-25T08:21:52.633Z,92926.75
2023-01-25T08:24:38.924Z,92927.25
2023-01-25T08:27:24.816Z,92924.16
2023-01-25T08:30:10.589Z,92919.00
2023-01-25T08:32:56.524Z,92910.00
2023-01-25T08:35:42.599Z,92918.25
2023-01-25T08:38:28.405Z,92917.22
2023-01-25T08:41:14.483Z,92904.84
2023-01-25T08:44:00.365Z,92903.00
2023-01-25T08:46:46.290Z,92910.22
2023-01-25T08:49:32.106Z,92907.94
2023-01-25T08:52:17.980Z,92901.13
2023-01-25T08:55:03.956Z,92903.69
2023-01-25T08:57:49.865Z,92891.41
2023-01-25T09:00:35.692Z,92895.31
2023-01-25T09:03:21.693Z,92887.03
2023-01-25T09:06:07.644Z,92881.06
2023-01-25T09:08:53.563Z,92885.94
2023-01-25T09:11:39.582Z,92891.91
2023-01-25T09:14:25.511Z,92897.06
2023-01-25T09:17:11.512Z,92897.09
2023-01-25T09:19:57.562Z,92887.50
2023-01-25T09:22:43.414Z,92886.78
2023-01-25T09:25:29.190Z,92878.78
2023-01-25T09:28:15.241Z,92874.41
2023-01-25T09:31:19.998Z,92872.84
2023-01-25T09:34:07.343Z,92874.19
2023-01-25T09:36:53.232Z,92873.84
2023-01-25T09:39:39.065Z,92866.91
2023-01-25T09:42:25.024Z,92874.28
2023-01-25T09:45:10.986Z,92875.16
2023-01-25T09:47:56.854Z,92874.59
2023-01-25T09:50:42.887Z,92877.44
2023-01-25T09:53:28.687Z,92878.19
2023-01-25T09:56:14.772Z,92871.50
2023-01-25T09:59:00.666Z,92868.66
2023-01-25T10:01:46.699Z,92864.97
2023-01-25T10:04:32.950Z,92856.84
2023-01-25T10:07:18.861Z,92869.47
2023-01-25T10:10:04.684Z,92866.09
2023-01-25T10:12:50.736Z,92858.16
2023-01-25T10:15:36.524Z,92860.31
2023-01-25T10:18:22.464Z,92864.59
2023-01-25T10:21:08.464Z,92859.69
2023-01-25T10:23:54.454Z,92862.22
2023-01-25T10:26:40.427Z,92862.31
2023-01-25T10:29:26.342Z,92851.19
2023-01-25T10:32:12.128Z,92851.84
2023-01-25T10:34:58.101Z,92850.38
2023-01-25T10:37:44.057Z,92847.00
2023-01-25T10:40:30.074Z,92848.31
2023-01-25T10:43:16.078Z,92834.84
2023-01-25T10:46:02.026Z,92840.13
2023-01-25T10:48:48.061Z,92831.50
2023-01-25T10:51:33.939Z,92824.34
2023-01-25T10:54:19.873Z,92821.22
2023-01-25T10:57:05.811Z,92818.88
2023-01-25T10:59:51.515Z,92812.91
2023-01-25T11:02:37.555Z,92808.56
2023-01-25T11:05:23.594Z,92804.16
2023-01-25T11:08:09.536Z,92809.81
2023-01-25T11:10:55.438Z,92806.38
2023-01-25T11:13:41.368Z,92812.41
2023-01-25T11:16:27.325Z,92807.50
2023-01-25T11:19:13.186Z,92803.09
2023-01-25T11:22:00.048Z,92802.53
2023-01-25T11:24:46.063Z,92797.38
2023-01-25T11:27:32.016Z,92796.94
2023-01-25T11:30:17.740Z,92787.50
2023-01-25T11:33:03.701Z,92790.81
2023-01-25T11:35:49.600Z,92777.91
2023-01-25T11:38:35.624Z,92781.81
2023-01-25T11:41:21.673Z,92784.72
2023-01-25T11:44:07.407Z,92770.53
2023-01-25T11:46:53.343Z,92766.53
2023-01-25T11:49:39.252Z,92766.78
2023-01-25T11:52:25.117Z,92757.16
2023-01-25T11:55:11.113Z,92755.63
2023-01-25T11:57:56.964Z,92753.97
2023-01-25T12:00:42.921Z,92747.16
2023-01-25T12:03:28.931Z,92747.31
2023-01-25T12:06:14.688Z,92739.06
2023-01-25T12:09:00.689Z,92741.06
2023-01-25T12:11:48.674Z,92737.72
2023-01-25T12:14:34.479Z,92730.41
2023-01-25T12:17:20.525Z,92722.00
2023-01-25T12:20:06.475Z,92711.66
2023-01-25T12:22:52.333Z,92717.03
2023-01-25T12:25:38.239Z,92712.25
2023-01-25T12:28:24.046Z,92706.41
2023-01-25T12:31:09.948Z,92693.91
2023-01-25T12:33:56.360Z,92699.69
2023-01-25T12:36:42.196Z,92688.22
2023-01-25T12:39:28.234Z,92692.25
2023-01-25T12:42:14.058Z,92687.84
2023-01-25T12:44:59.885Z,92690.47
2023-01-25T12:47:45.814Z,92680.00
2023-01-25T12:50:31.594Z,92675.94
2023-01-25T12:53:17.585Z,92672.38
2023-01-25T12:56:03.526Z,92671.59
2023-01-25T12:58:49.336Z,92677.72
2023-01-25T13:01:35.449Z,92666.91
2023-01-25T13:04:21.663Z,92669.38
2023-01-25T13:07:07.601Z,92662.13
2023-01-25T13:09:53.616Z,92659.28
2023-01-25T13:12:39.467Z,92659.19
2023-01-25T13:15:25.369Z,92655.50
2023-01-25T13:18:11.329Z,92651.13
2023-01-25T13:20:57.287Z,92656.97
2023-01-25T13:23:43.315Z,92655.50
2023-01-25T13:26:29.087Z,92646.81
2023-01-25T13:29:15.085Z,92649.09
2023-01-25T13:32:01.122Z,92635.09
2023-01-25T13:34:46.993Z,92637.81
2023-01-25T13:37:33.007Z,92630.94
2023-01-25T13:40:19.038Z,92636.81
2023-01-25T13:43:04.809Z,92633.47
2023-01-25T13:45:50.932Z,92630.09
2023-01-25T13:48:38.344Z,92622.13
2023-01-25T13:51:24.515Z,92638.88
2023-01-25T13:54:10.541Z,92628.19
2023-01-25T13:56:56.426Z,92629.06
2023-01-25T13:59:42.380Z,92624.50
2023-01-25T14:02:28.263Z,92613.03
2023-01-25T14:05:14.074Z,92606.84
2023-01-25T14:08:00.077Z,92607.88
2023-01-25T14:10:45.997Z,92609.63
2023-01-25T14:13:31.991Z,92613.59
2023-01-25T14:16:18.180Z,92619.97
2023-01-25T14:19:03.997Z,92621.13
2023-01-25T14:21:49.948Z,92622.00
2023-01-25T14:24:35.920Z,92624.25
2023-01-25T14:27:21.878Z,92628.09
2023-01-25T14:30:08.025Z,92627.31
2023-01-25T14:32:54.568Z,92616.22
2023-01-25T14:35:54.199Z,92615.22
2023-01-25T14:38:41.556Z,92604.03
2023-01-25T14:41:27.330Z,92609.94
2023-01-25T14:44:13.252Z,92609.28
2023-01-25T14:46:59.238Z,92618.72
2023-01-25T14:49:45.092Z,92605.88
2023-01-25T14:52:31.110Z,92605.66
2023-01-25T14:55:17.339Z,92610.41
2023-01-25T14:58:03.298Z,92596.75
2023-01-25T15:00:49.259Z,92606.78
2023-01-25T15:03:35.266Z,92613.72
2023-01-25T15:06:21.378Z,92599.44
2023-01-25T15:09:07.366Z,92590.41
2023-01-25T15:11:53.327Z,92596.69
2023-01-25T15:14:39.402Z,92594.44
2023-01-25T15:17:25.357Z,92590.88
2023-01-25T15:20:11.584Z,92591.72
2023-01-25T15:22:57.580Z,92600.81
2023-01-25T15:25:43.448Z,92596.44
2023-01-25T15:28:29.402Z,92593.97
2023-01-25T15:31:15.560Z,92590.63
2023-01-25T15:34:01.841Z,92585.72
2023-01-25T15:36:47.936Z,92587.22
2023-01-25T15:39:33.801Z,92582.94
2023-01-25T15:42:19.841Z,92576.25
2023-01-25T15:45:07.776Z,92577.59
2023-01-25T15:47:53.875Z,92578.66
2023-01-25T15:50:39.840Z,92577.38
2023-01-25T15:53:25.838Z,92575.56
2023-01-25T15:56:11.689Z,92572.81
2023-01-25T15:58:57.589Z,92569.47
2023-01-25T16:01:43.585Z,92571.84
2023-01-25T16:04:29.538Z,92556.41
2023-01-25T16:07:15.454Z,92555.69
2023-01-25T16:10:01.305Z,92549.25
2023-01-25T16:12:47.195Z,92556.41
2023-01-25T16:15:33.236Z,92550.81
2023-01-25T16:18:19.093Z,92545.75
2023-01-25T16:21:05.109Z,92544.56
2023-01-25T16:23:51.163Z,92547.03
2023-01-25T16:26:37.089Z,92545.09
2023-01-25T16:29:23.129Z,92540.03
2023-01-25T16:32:09.346Z,92547.78
2023-01-25T16:34:55.355Z,92546.19
2023-01-25T16:37:41.410Z,92536.78
2023-01-25T16:40:27.234Z,92543.03
2023-01-25T16:43:13.184Z,92538.72
2023-01-25T16:45:59.124Z,92546.50
2023-01-25T16:48:44.955Z,92549.84
2023-01-25T16:51:30.825Z,92549.53
2023-01-25T16:54:16.798Z,92545.72
2023-01-25T16:57:15.091Z,92546.56
2023-01-25T17:00:05.959Z,92535.19
2023-01-25T17:02:59.247Z,92523.13
2023-01-25T17:05:45.376Z,92529.16
2023-01-25T17:08:31.375Z,92525.00
2023-01-25T17:11:17.079Z,92526.69
2023-01-25T17:14:02.905Z,92527.22
2023-01-25T17:16:48.679Z,92520.00
2023-01-25T17:19:34.552Z,92523.19
2023-01-25T17:22:20.575Z,92519.56
2023-01-25T17:25:06.579Z,92515.91
2023-01-25T17:27:52.417Z,92512.88
2023-01-25T17:30:38.357Z,92518.38
2023-01-25T17:33:24.498Z,92510.00
2023-01-25T17:36:10.621Z,92518.19
2023-01-25T17:38:56.562Z,92513.66
2023-01-25T17:41:42.576Z,92508.41
2023-01-25T17:44:28.755Z,92505.88
2023-01-25T17:47:14.795Z,92505.84
2023-01-25T17:50:00.711Z,92503.50
2023-01-25T17:52:46.741Z,92502.34
2023-01-25T17:55:32.746Z,92506.88
2023-01-25T17:58:18.591Z,92504.56
2023-01-25T18:01:13.509Z,92505.28
2023-01-25T18:04:00.334Z,92503.59
2023-01-25T18:06:46.282Z,92507.34
2023-01-25T18:09:32.184Z,92498.63
2023-01-25T18:12:20.274Z,92488.38
2023-01-25T18:15:06.732Z,92497.16
2023-01-25T18:17:52.701Z,92488.44
2023-01-25T18:20:38.661Z,92492.88
2023-01-25T18:23:24.792Z,92488.38
2023-01-25T18:26:10.660Z,92487.59
2023-01-25T18:28:56.559Z,92490.03
2023-01-25T18:31:42.697Z,92488.50
2023-01-25T18:34:28.820Z,92486.38
2023-01-25T18:37:14.590Z,92485.22
2023-01-25T18:40:00.464Z,92483.94
2023-01-25T18:42:46.405Z,92477.84
2023-01-25T18:45:32.401Z,92480.03
2023-01-25T18:48:18.309Z,92480.13
2023-01-25T18:51:04.331Z,92479.22
2023-01-25T18:53:50.237Z,92473.47
2023-01-25T18:56:36.216Z,92475.09
2023-01-25T18:59:22.224Z,92468.63
2023-01-25T19:02:08.043Z,92461.19
2023-01-25T19:04:53.984Z,92467.03
2023-01-25T19:07:41.923Z,92462.88
2023-01-25T19:10:27.841Z,92464.22
2023-01-25T19:13:13.765Z,92462.00
2023-01-25T19:15:59.756Z,92465.19
2023-01-25T19:18:45.619Z,92463.84
2023-01-25T19:21:31.359Z,92462.50
2023-01-25T19:24:19.490Z,92460.84
2023-01-25T19:27:05.640Z,92462.50
2023-01-25T19:29:51.696Z,92456.66
2023-01-25T19:32:37.769Z,92460.22
2023-01-25T19:35:23.557Z,92463.78
2023-01-25T19:38:09.595Z,92455.72
2023-01-25T19:40:55.528Z,92460.66
2023-01-25T19:43:41.454Z,92453.78
2023-01-25T19:46:27.565Z,92448.47
2023-01-25T19:49:13.489Z,92450.53
2023-01-25T19:51:59.532Z,92446.72
2023-01-25T19:54:45.612Z,92456.84
2023-01-25T19:57:31.425Z,92448.94
2023-01-25T20:00:17.466Z,92450.94
2023-01-25T20:03:15.584Z,92442.59
2023-01-25T20:06:02.483Z,92449.66
2023-01-25T20:08:48.412Z,92454.38
2023-01-25T20:11:34.355Z,92450.75
2023-01-25T20:14:20.405Z,92439.97
2023-01-25T20:17:06.650Z,92438.31
2023-01-25T20:19:52.726Z,92437.09
2023-01-25T20:22:38.622Z,92441.44
2023-01-25T20:25:24.533Z,92440.03
2023-01-25T20:28:10.412Z,92434.47
2023-01-25T20:30:56.303Z,92434.28
2023-01-25T20:33:42.236Z,92431.88
2023-01-25T20:36:28.212Z,92424.94
2023-01-25T20:39:14.045Z,92431.16
2023-01-25T20:42:00.006Z,92425.09
2023-01-25T20:44:45.937Z,92428.38
2023-01-25T20:47:31.727Z,92428.31
2023-01-25T20:50:17.739Z,92418.94
2023-01-25T20:53:03.617Z,92425.91
2023-01-25T20:55:49.551Z,92424.56
2023-01-25T20:58:35.597Z,92410.81
2023-01-25T21:01:21.394Z,92402.63
2023-01-25T21:04:07.285Z,92399.22
2023-01-25T21:06:53.282Z,92399.28
2023-01-25T21:09:40.812Z,92394.31
2023-01-25T21:12:28.255Z,92397.59
2023-01-25T21:15:14.256Z,92402.38
2023-01-25T21:18:00.144Z,92401.88
2023-01-25T21:20:46.151Z,92397.97
2023-01-25T21:23:32.152Z,92388.09
2023-01-25T21:26:18.150Z,92391.00
2023-01-25T21:29:04.039Z,92390.53
2023-01-25T21:31:49.763Z,92394.78
2023-01-25T21:34:35.858Z,92390.97
2023-01-25T21:37:21.726Z,92388.94
2023-01-25T21:40:07.732Z,92386.03
2023-01-25T21:42:53.545Z,92379.91
2023-01-25T21:45:39.508Z,92372.50
2023-01-25T21:48:25.593Z,92373.19
2023-01-25T21:51:11.500Z,92374.78
2023-01-25T21:53:57.388Z,92373.38
2023-01-25T21:56:43.272Z,92371.84
2023-01-25T21:59:29.068Z,92361.56
2023-01-25T22:02:14.907Z,92361.56
2023-01-25T22:05:01.223Z,92357.38
2023-01-25T22:07:47.252Z,92358.53
2023-01-25T22:10:33.207Z,92357.03
2023-01-25T22:13:19.263Z,92344.59
2023-01-25T22:16:05.181Z,92354.84
2023-01-25T22:18:51.094Z,92348.88
2023-01-25T22:21:37.063Z,92352.91
2023-01-25T22:24:23.150Z,92356.41
2023-01-25T22:27:09.170Z,92347.84
2023-01-25T22:29:54.984Z,92349.81
2023-01-25T22:32:41.070Z,92345.97
2023-01-25T22:35:27.029Z,92346.81
2023-01-25T22:38:12.844Z,92351.03
2023-01-25T22:40:58.719Z,92358.31
2023-01-25T22:43:44.627Z,92354.84
2023-01-25T22:46:30.583Z,92352.50
2023-01-25T22:49:16.513Z,92350.34
2023-01-25T22:52:02.311Z,92345.38
2023-01-25T22:54:48.220Z,92335.47
2023-01-25T22:57:34.186Z,92329.38
2023-01-25T23:00:20.008Z,92319.50
2023-01-25T23:03:05.984Z,92313.31
2023-01-25T23:05:51.767Z,92314.69
2023-01-25T23:08:37.787Z,92314.66
2023-01-25T23:11:23.702Z,92309.06
2023-01-25T23:14:09.685Z,92316.16
2023-01-25T23:16:55.591Z,92308.28
2023-01-25T23:19:41.461Z,92309.53
2023-01-25T23:22:27.424Z,92313.63
2023-01-25T23:25:13.386Z,92299.75
2023-01-25T23:27:59.180Z,92296.72
2023-01-25T23:30:45.137Z,92292.56
2023-01-25T23:33:31.111Z,92282.63
2023-01-25T23:36:16.951Z,92283.31
2023-01-25T23:39:02.648Z,92276.13
2023-01-25T23:41:48.499Z,92267.84
2023-01-25T23:44:34.312Z,92266.06
2023-01-25T23:47:20.401Z,92256.97
2023-01-25T23:50:06.268Z,92253.41
2023-01-25T23:52:52.183Z,92250.06
2023-01-25T23:55:39.985Z,92248.53
2023-01-25T23:58:25.813Z,92245.75
